createdAt,value
2018-12-13T00:00:40.891Z,19.49
2018-12-13T00:01:40.884Z,19.48
2018-12-13T00:02:41.016Z,19.53
2018-12-13T00:03:40.860Z,19.48
2018-12-13T00:04:40.848Z,19.52
2018-12-13T00:05:40.837Z,19.48
2018-12-13T00:06:40.829Z,19.52
2018-12-13T00:07:40.817Z,19.47
2018-12-13T00:08:40.910Z,19.52
2018-12-13T00:09:40.792Z,19.49
2018-12-13T00:10:40.788Z,19.53
2018-12-13T00:11:40.782Z,19.55
2018-12-13T00:12:40.765Z,19.42
2018-12-13T00:13:40.753Z,19.55
2018-12-13T00:14:40.939Z,19.55
2018-12-13T00:15:40.723Z,19.44
2018-12-13T00:16:40.721Z,19.49
2018-12-13T00:17:40.709Z,19.48
2018-12-13T00:18:40.700Z,19.45
2018-12-13T00:19:40.686Z,19.48
2018-12-13T00:20:40.780Z,19.52
2018-12-13T00:21:40.662Z,19.49
2018-12-13T00:22:40.652Z,19.56
2018-12-13T00:23:40.639Z,19.44
2018-12-13T00:24:40.628Z,19.52
2018-12-13T00:25:40.615Z,19.53
2018-12-13T00:26:40.811Z,19.49
2018-12-13T00:27:40.594Z,19.52
2018-12-13T00:28:40.586Z,19.48
2018-12-13T00:29:40.578Z,19.48
2018-12-13T00:30:40.566Z,19.47
2018-12-13T00:31:40.554Z,19.48
2018-12-13T00:32:40.637Z,19.48
2018-12-13T00:33:40.532Z,19.48
2018-12-13T00:34:40.521Z,19.55
2018-12-13T00:35:40.506Z,19.44
2018-12-13T00:36:40.498Z,19.52
2018-12-13T00:37:40.487Z,19.52
2018-12-13T00:38:40.572Z,19.49
2018-12-13T00:39:40.463Z,19.47
2018-12-13T00:40:40.459Z,19.52
2018-12-13T00:41:40.455Z,19.45
2018-12-13T00:42:40.430Z,19.56
2018-12-13T00:43:40.419Z,19.49
2018-12-13T00:44:41.335Z,19.49
2018-12-13T00:45:40.398Z,19.49
2018-12-13T00:46:40.387Z,19.53
2018-12-13T00:47:40.377Z,19.49
2018-12-13T00:48:40.365Z,19.52
2018-12-13T00:49:40.354Z,19.56
2018-12-13T00:50:40.455Z,19.57
2018-12-13T00:51:40.331Z,19.55
2018-12-13T00:52:40.321Z,19.45
2018-12-13T00:53:40.324Z,19.53
2018-12-13T00:54:40.300Z,19.52
2018-12-13T00:55:40.289Z,19.55
2018-12-13T00:56:40.375Z,19.47
2018-12-13T00:57:40.267Z,19.49
2018-12-13T00:58:40.255Z,19.49
2018-12-13T00:59:40.248Z,19.55
2018-12-13T01:00:40.236Z,19.56
2018-12-13T01:01:40.223Z,19.45
2018-12-13T01:02:40.503Z,19.56
2018-12-13T01:03:40.202Z,19.56
2018-12-13T01:04:40.197Z,19.57
2018-12-13T01:05:40.709Z,19.53
2018-12-13T01:06:45.832Z,19.60
2018-12-13T01:07:41.252Z,19.59
2018-12-13T01:08:40.153Z,19.59
2018-12-13T01:09:40.138Z,19.57
2018-12-13T01:10:40.135Z,19.48
2018-12-13T01:11:40.116Z,19.59
2018-12-13T01:12:40.111Z,19.53
2018-12-13T01:13:40.448Z,19.57
2018-12-13T01:14:40.082Z,19.47
2018-12-13T01:15:40.072Z,19.52
2018-12-13T01:16:40.063Z,19.59
2018-12-13T01:17:40.054Z,19.47
2018-12-13T01:18:40.044Z,19.53
2018-12-13T01:19:40.314Z,19.59
2018-12-13T01:20:40.023Z,19.55
2018-12-13T01:21:40.011Z,19.45
2018-12-13T01:22:40.062Z,19.53
2018-12-13T01:23:39.988Z,19.49
2018-12-13T01:24:39.973Z,19.45
2018-12-13T01:25:40.070Z,19.59
2018-12-13T01:26:39.952Z,19.45
2018-12-13T01:27:39.941Z,19.42
2018-12-13T01:28:39.933Z,19.48
2018-12-13T01:29:39.923Z,19.48
2018-12-13T01:30:39.907Z,19.47
2018-12-13T01:31:40.160Z,19.44
2018-12-13T01:32:39.890Z,19.45
2018-12-13T01:33:39.878Z,19.48
2018-12-13T01:34:39.865Z,19.44
2018-12-13T01:35:39.853Z,19.47
2018-12-13T01:36:39.845Z,19.47
2018-12-13T01:37:39.963Z,19.42
2018-12-13T01:38:39.820Z,19.47
2018-12-13T01:39:39.818Z,19.47
2018-12-13T01:40:39.798Z,19.49
2018-12-13T01:41:39.790Z,19.53
2018-12-13T01:42:39.780Z,19.49
2018-12-13T01:43:39.861Z,19.49
2018-12-13T01:44:39.760Z,19.52
2018-12-13T01:45:39.749Z,19.53
2018-12-13T01:46:39.737Z,19.47
2018-12-13T01:47:39.723Z,19.45
2018-12-13T01:48:39.727Z,19.52
2018-12-13T01:49:39.799Z,19.53
2018-12-13T01:50:39.695Z,19.55
2018-12-13T01:51:39.679Z,19.53
2018-12-13T01:52:39.669Z,19.55
2018-12-13T01:53:39.657Z,19.59
2018-12-13T01:54:39.652Z,19.48
2018-12-13T01:55:39.742Z,19.52
2018-12-13T01:56:39.630Z,19.56
2018-12-13T01:57:39.615Z,19.47
2018-12-13T01:58:39.614Z,19.53
2018-12-13T01:59:39.598Z,19.47
2018-12-13T02:00:39.586Z,19.49
2018-12-13T02:01:39.757Z,19.52
2018-12-13T02:02:39.568Z,19.52
2018-12-13T02:03:39.552Z,19.52
2018-12-13T02:04:39.543Z,19.53
2018-12-13T02:05:39.533Z,19.56
2018-12-13T02:06:39.518Z,19.49
2018-12-13T02:07:39.603Z,19.52
2018-12-13T02:08:39.540Z,19.52
2018-12-13T02:09:39.524Z,19.52
2018-12-13T02:10:39.476Z,19.47
2018-12-13T02:11:39.498Z,19.53
2018-12-13T02:12:39.454Z,19.44
2018-12-13T02:13:39.550Z,19.55
2018-12-13T02:14:39.431Z,19.48
2018-12-13T02:15:39.424Z,19.59
2018-12-13T02:16:39.411Z,19.62
2018-12-13T02:17:39.399Z,19.57
2018-12-13T02:18:39.390Z,19.63
2018-12-13T02:19:39.798Z,19.63
2018-12-13T02:20:39.367Z,19.60
2018-12-13T02:21:39.357Z,19.63
2018-12-13T02:22:39.354Z,19.63
2018-12-13T02:23:39.338Z,19.59
2018-12-13T02:24:39.322Z,19.59
2018-12-13T02:25:39.529Z,19.60
2018-12-13T02:26:39.324Z,19.59
2018-12-13T02:27:39.310Z,19.57
2018-12-13T02:28:39.284Z,19.49
2018-12-13T02:29:39.269Z,19.49
2018-12-13T02:30:39.268Z,19.49
2018-12-13T02:31:39.357Z,19.49
2018-12-13T02:32:39.237Z,19.52
2018-12-13T02:33:39.225Z,19.56
2018-12-13T02:34:39.221Z,19.53
2018-12-13T02:35:39.207Z,19.44
2018-12-13T02:36:39.192Z,19.49
2018-12-13T02:37:39.285Z,19.52
2018-12-13T02:38:39.192Z,19.47
2018-12-13T02:39:39.160Z,19.44
2018-12-13T02:40:39.145Z,19.45
2018-12-13T02:41:39.139Z,19.52
2018-12-13T02:42:39.127Z,19.49
2018-12-13T02:43:39.271Z,19.52
2018-12-13T02:44:39.106Z,19.47
2018-12-13T02:45:39.097Z,19.52
2018-12-13T02:46:39.080Z,19.45
2018-12-13T02:47:39.075Z,19.42
2018-12-13T02:48:39.062Z,19.41
2018-12-13T02:49:39.359Z,19.39
2018-12-13T02:50:39.043Z,19.41
2018-12-13T02:51:39.029Z,19.41
2018-12-13T02:52:39.016Z,19.37
2018-12-13T02:53:39.012Z,19.32
2018-12-13T02:54:39.000Z,19.39
2018-12-13T02:55:39.094Z,19.39
2018-12-13T02:56:38.974Z,19.35
2018-12-13T02:57:38.960Z,19.34
2018-12-13T02:58:38.954Z,19.35
2018-12-13T02:59:38.937Z,19.29
2018-12-13T03:00:38.930Z,19.29
2018-12-13T03:01:39.018Z,19.29
2018-12-13T03:02:38.912Z,19.22
2018-12-13T03:03:38.938Z,19.23
2018-12-13T03:04:38.886Z,19.16
2018-12-13T03:05:38.879Z,19.19
2018-12-13T03:06:38.865Z,19.23
2018-12-13T03:07:39.126Z,19.24
2018-12-13T03:08:38.844Z,19.23
2018-12-13T03:09:38.846Z,19.23
2018-12-13T03:10:38.831Z,19.23
2018-12-13T03:11:38.816Z,19.22
2018-12-13T03:12:38.800Z,19.22
2018-12-13T03:13:38.886Z,19.17
2018-12-13T03:14:38.777Z,19.27
2018-12-13T03:15:38.767Z,19.20
2018-12-13T03:16:38.757Z,19.35
2018-12-13T03:17:38.749Z,19.26
2018-12-13T03:18:38.734Z,19.26
2018-12-13T03:19:38.820Z,19.23
2018-12-13T03:20:38.713Z,19.24
2018-12-13T03:21:38.702Z,19.26
2018-12-13T03:22:38.694Z,19.27
2018-12-13T03:23:38.683Z,19.24
2018-12-13T03:24:38.673Z,19.29
2018-12-13T03:25:38.893Z,19.26
2018-12-13T03:26:38.648Z,19.27
2018-12-13T03:27:38.637Z,19.27
2018-12-13T03:28:38.625Z,19.27
2018-12-13T03:29:38.611Z,19.23
2018-12-13T03:30:38.606Z,19.29
2018-12-13T03:31:39.095Z,19.32
2018-12-13T03:32:38.586Z,19.27
2018-12-13T03:33:38.581Z,19.24
2018-12-13T03:34:38.562Z,19.29
2018-12-13T03:35:39.323Z,19.24
2018-12-13T03:36:38.540Z,19.29
2018-12-13T03:37:38.640Z,19.32
2018-12-13T03:38:38.516Z,19.34
2018-12-13T03:39:38.508Z,19.27
2018-12-13T03:40:38.493Z,19.27
2018-12-13T03:41:38.485Z,19.24
2018-12-13T03:42:38.473Z,19.23
2018-12-13T03:43:38.560Z,19.24
2018-12-13T03:44:38.452Z,19.27
2018-12-13T03:45:38.440Z,19.29
2018-12-13T03:46:38.431Z,19.27
2018-12-13T03:47:38.418Z,19.24
2018-12-13T03:48:38.413Z,19.16
2018-12-13T03:49:38.567Z,19.16
2018-12-13T03:50:38.390Z,19.22
2018-12-13T03:51:38.374Z,19.23
2018-12-13T03:52:38.361Z,19.15
2018-12-13T03:53:38.356Z,19.16
2018-12-13T03:54:38.342Z,19.09
2018-12-13T03:55:38.437Z,19.07
2018-12-13T03:56:38.324Z,18.92
2018-12-13T03:57:38.309Z,19.01
2018-12-13T03:58:38.305Z,19.01
2018-12-13T03:59:38.288Z,19.05
2018-12-13T04:00:38.348Z,19.07
2018-12-13T04:01:38.444Z,18.96
2018-12-13T04:02:38.253Z,18.92
2018-12-13T04:03:38.256Z,18.98
2018-12-13T04:04:38.227Z,19.05
2018-12-13T04:05:38.220Z,18.94
2018-12-13T04:06:38.211Z,18.97
2018-12-13T04:07:38.402Z,18.94
2018-12-13T04:08:38.185Z,18.92
2018-12-13T04:09:38.176Z,18.94
2018-12-13T04:10:38.173Z,19.00
2018-12-13T04:11:38.161Z,18.91
2018-12-13T04:12:38.221Z,18.97
2018-12-13T04:13:38.241Z,19.00
2018-12-13T04:14:38.121Z,19.05
2018-12-13T04:15:38.113Z,18.94
2018-12-13T04:16:38.097Z,18.96
2018-12-13T04:17:38.087Z,19.07
2018-12-13T04:18:38.073Z,19.05
2018-12-13T04:19:38.230Z,18.96
2018-12-13T04:20:38.056Z,19.00
2018-12-13T04:21:38.052Z,18.97
2018-12-13T04:22:38.031Z,19.08
2018-12-13T04:23:38.026Z,18.92
2018-12-13T04:24:38.013Z,18.94
2018-12-13T04:25:38.270Z,18.96
2018-12-13T04:26:37.993Z,18.98
2018-12-13T04:27:37.979Z,19.07
2018-12-13T04:28:37.969Z,19.04
2018-12-13T04:29:37.959Z,19.08
2018-12-13T04:30:37.945Z,19.09
2018-12-13T04:31:38.032Z,19.05
2018-12-13T04:32:37.929Z,19.01
2018-12-13T04:33:37.911Z,19.07
2018-12-13T04:34:37.901Z,18.94
2018-12-13T04:35:37.888Z,19.05
2018-12-13T04:36:37.918Z,18.96
2018-12-13T04:37:37.970Z,18.97
2018-12-13T04:38:37.855Z,19.04
2018-12-13T04:39:37.844Z,19.07
2018-12-13T04:40:37.837Z,19.04
2018-12-13T04:41:37.827Z,19.09
2018-12-13T04:42:37.812Z,19.08
2018-12-13T04:43:38.005Z,19.07
2018-12-13T04:44:37.949Z,19.07
2018-12-13T04:45:37.780Z,19.07
2018-12-13T04:46:37.771Z,19.19
2018-12-13T04:47:37.759Z,19.12
2018-12-13T04:48:37.751Z,19.22
2018-12-13T04:49:37.855Z,19.17
2018-12-13T04:50:37.726Z,19.12
2018-12-13T04:51:37.718Z,19.22
2018-12-13T04:52:37.707Z,19.24
2018-12-13T04:53:37.700Z,19.37
2018-12-13T04:54:37.683Z,19.22
2018-12-13T04:55:37.787Z,19.26
2018-12-13T04:56:37.663Z,19.26
2018-12-13T04:57:37.649Z,19.30
2018-12-13T04:58:37.641Z,19.30
2018-12-13T04:59:37.627Z,19.32
2018-12-13T05:00:37.619Z,19.30
2018-12-13T05:01:37.888Z,19.29
2018-12-13T05:02:37.604Z,19.35
2018-12-13T05:03:37.582Z,19.35
2018-12-13T05:04:37.576Z,19.35
2018-12-13T05:05:37.566Z,19.41
2018-12-13T05:06:37.550Z,19.42
2018-12-13T05:07:41.708Z,19.49
2018-12-13T05:08:37.535Z,19.55
2018-12-13T05:09:37.517Z,19.48
2018-12-13T05:10:37.511Z,19.56
2018-12-13T05:11:37.498Z,19.49
2018-12-13T05:12:37.485Z,19.55
2018-12-13T05:13:37.575Z,19.57
2018-12-13T05:14:37.467Z,19.56
2018-12-13T05:15:37.456Z,19.55
2018-12-13T05:16:37.441Z,19.67
2018-12-13T05:17:37.486Z,19.57
2018-12-13T05:18:37.422Z,19.66
2018-12-13T05:19:37.724Z,19.77
2018-12-13T05:20:37.405Z,19.81
2018-12-13T05:21:37.391Z,19.74
2018-12-13T05:22:37.380Z,19.74
2018-12-13T05:23:37.368Z,19.84
2018-12-13T05:24:37.367Z,19.71
2018-12-13T05:25:37.452Z,19.77
2018-12-13T05:26:37.337Z,19.67
2018-12-13T05:27:37.325Z,19.72
2018-12-13T05:28:37.316Z,19.70
2018-12-13T05:29:37.304Z,19.72
2018-12-13T05:30:37.295Z,19.67
2018-12-13T05:31:37.388Z,19.66
2018-12-13T05:32:37.270Z,19.59
2018-12-13T05:33:37.259Z,19.66
2018-12-13T05:34:37.248Z,19.67
2018-12-13T05:35:37.237Z,19.59
2018-12-13T05:36:37.238Z,19.64
2018-12-13T05:37:37.323Z,19.64
2018-12-13T05:38:37.204Z,19.63
2018-12-13T05:39:37.202Z,19.63
2018-12-13T05:40:37.227Z,19.67
2018-12-13T05:41:37.189Z,19.62
2018-12-13T05:42:37.172Z,19.66
2018-12-13T05:43:39.838Z,19.67
2018-12-13T05:44:37.144Z,19.59
2018-12-13T05:45:37.131Z,19.60
2018-12-13T05:46:37.827Z,19.71
2018-12-13T05:47:37.735Z,19.75
2018-12-13T05:48:37.104Z,19.67
2018-12-13T05:49:38.230Z,19.74
2018-12-13T05:50:37.088Z,19.70
2018-12-13T05:51:37.065Z,19.71
2018-12-13T05:52:37.834Z,19.62
2018-12-13T05:53:37.047Z,19.60
2018-12-13T05:54:37.063Z,19.67
2018-12-13T05:55:37.131Z,19.59
2018-12-13T05:56:37.175Z,19.64
2018-12-13T05:57:38.731Z,19.62
2018-12-13T05:58:38.727Z,19.70
2018-12-13T05:59:37.239Z,19.60
2018-12-13T06:00:36.985Z,19.59
2018-12-13T06:01:37.154Z,19.67
2018-12-13T06:02:36.957Z,19.70
2018-12-13T06:03:36.942Z,19.67
2018-12-13T06:04:36.928Z,19.57
2018-12-13T06:05:36.912Z,19.72
2018-12-13T06:06:36.903Z,19.71
2018-12-13T06:07:37.082Z,19.85
2018-12-13T06:08:36.894Z,19.81
2018-12-13T06:09:36.874Z,19.82
2018-12-13T06:10:37.831Z,19.84
2018-12-13T06:11:36.849Z,19.84
2018-12-13T06:12:36.839Z,19.84
2018-12-13T06:13:36.955Z,19.78
2018-12-13T06:14:36.821Z,19.85
2018-12-13T06:15:36.873Z,19.79
2018-12-13T06:16:36.799Z,19.90
2018-12-13T06:17:36.782Z,19.85
2018-12-13T06:18:36.774Z,19.81
2018-12-13T06:19:36.867Z,19.87
2018-12-13T06:20:36.749Z,19.79
2018-12-13T06:21:37.196Z,19.85
2018-12-13T06:22:36.722Z,19.82
2018-12-13T06:23:36.721Z,19.89
2018-12-13T06:24:36.736Z,19.79
2018-12-13T06:25:37.004Z,19.82
2018-12-13T06:26:36.683Z,19.77
2018-12-13T06:27:36.678Z,19.78
2018-12-13T06:28:36.664Z,19.82
2018-12-13T06:29:41.774Z,19.77
2018-12-13T06:30:37.743Z,19.87
2018-12-13T06:31:36.630Z,19.87
2018-12-13T06:32:36.642Z,19.94
2018-12-13T06:33:36.645Z,19.96
2018-12-13T06:34:36.604Z,20.02
2018-12-13T06:35:36.591Z,19.94
2018-12-13T06:36:36.673Z,19.94
2018-12-13T06:37:36.636Z,19.99
2018-12-13T06:38:36.568Z,20.03
2018-12-13T06:39:36.549Z,20.15
2018-12-13T06:40:36.538Z,20.04
2018-12-13T06:41:36.522Z,20.10
2018-12-13T06:42:36.716Z,20.08
2018-12-13T06:43:36.508Z,20.19
2018-12-13T06:44:36.490Z,20.19
2018-12-13T06:45:36.478Z,20.18
2018-12-13T06:46:36.471Z,20.08
2018-12-13T06:47:36.453Z,20.24
2018-12-13T06:48:36.628Z,20.19
2018-12-13T06:49:36.447Z,20.21
2018-12-13T06:50:36.430Z,20.14
2018-12-13T06:51:36.412Z,20.18
2018-12-13T06:52:36.401Z,20.24
2018-12-13T06:53:36.397Z,20.24
2018-12-13T06:54:36.480Z,20.26
2018-12-13T06:55:36.379Z,20.22
2018-12-13T06:56:36.397Z,20.22
2018-12-13T06:57:36.348Z,20.29
2018-12-13T06:58:36.338Z,20.24
2018-12-13T06:59:36.327Z,20.39
2018-12-13T07:00:36.614Z,20.30
2018-12-13T07:01:36.309Z,20.48
2018-12-13T07:02:36.300Z,20.39
2018-12-13T07:03:36.280Z,20.22
2018-12-13T07:04:36.277Z,20.40
2018-12-13T07:05:36.280Z,20.37
2018-12-13T07:06:36.429Z,20.36
2018-12-13T07:07:36.258Z,20.34
2018-12-13T07:08:36.228Z,20.33
2018-12-13T07:09:36.219Z,20.22
2018-12-13T07:10:36.210Z,20.24
2018-12-13T07:11:36.197Z,20.34
2018-12-13T07:12:36.383Z,20.32
2018-12-13T07:13:36.177Z,20.32
2018-12-13T07:14:36.166Z,20.44
2018-12-13T07:15:36.153Z,20.44
2018-12-13T07:16:36.142Z,20.42
2018-12-13T07:17:36.138Z,20.52
2018-12-13T07:18:36.229Z,20.53
2018-12-13T07:19:36.108Z,20.52
2018-12-13T07:20:36.106Z,20.48
2018-12-13T07:21:36.095Z,20.56
2018-12-13T07:22:36.106Z,20.53
2018-12-13T07:23:36.066Z,20.55
2018-12-13T07:24:36.152Z,20.53
2018-12-13T07:25:36.047Z,20.50
2018-12-13T07:26:36.031Z,20.53
2018-12-13T07:27:36.021Z,20.56
2018-12-13T07:28:36.011Z,20.58
2018-12-13T07:29:36.001Z,20.59
2018-12-13T07:30:36.269Z,20.66
2018-12-13T07:31:35.979Z,20.75
2018-12-13T07:32:35.970Z,20.77
2018-12-13T07:33:35.955Z,20.83
2018-12-13T07:34:35.945Z,20.93
2018-12-13T07:35:35.945Z,20.93
2018-12-13T07:36:36.028Z,21.08
2018-12-13T07:37:35.924Z,21.08
2018-12-13T07:38:35.901Z,20.93
2018-12-13T07:39:35.888Z,21.04
2018-12-13T07:40:35.882Z,21.07
2018-12-13T07:41:35.876Z,21.11
2018-12-13T07:42:36.046Z,21.08
2018-12-13T07:43:35.852Z,21.13
2018-12-13T07:44:35.835Z,21.20
2018-12-13T07:45:35.831Z,21.14
2018-12-13T07:46:35.823Z,21.14
2018-12-13T07:47:35.810Z,21.15
2018-12-13T07:48:36.110Z,21.17
2018-12-13T07:49:35.781Z,21.13
2018-12-13T07:50:35.770Z,21.04
2018-12-13T07:51:35.762Z,20.96
2018-12-13T07:52:35.747Z,21.00
2018-12-13T07:53:35.739Z,20.93
2018-12-13T07:54:35.901Z,20.92
2018-12-13T07:55:35.739Z,20.96
2018-12-13T07:56:35.707Z,20.93
2018-12-13T07:57:35.700Z,20.85
2018-12-13T07:58:35.693Z,20.83
2018-12-13T07:59:35.673Z,20.90
2018-12-13T08:00:35.767Z,20.90
2018-12-13T08:01:35.655Z,20.93
2018-12-13T08:02:35.641Z,21.03
2018-12-13T08:03:35.628Z,20.96
2018-12-13T08:04:35.619Z,20.96
2018-12-13T08:05:35.603Z,21.00
2018-12-13T08:06:35.763Z,20.90
2018-12-13T08:07:35.582Z,20.88
2018-12-13T08:08:35.565Z,20.98
2018-12-13T08:09:35.570Z,20.86
2018-12-13T08:10:35.555Z,21.10
2018-12-13T08:11:35.543Z,21.04
2018-12-13T08:12:35.783Z,20.92
2018-12-13T08:13:35.516Z,20.93
2018-12-13T08:14:35.509Z,20.95
2018-12-13T08:15:35.497Z,21.13
2018-12-13T08:16:35.505Z,21.13
2018-12-13T08:17:35.471Z,21.25
2018-12-13T08:18:35.569Z,21.23
2018-12-13T08:19:35.456Z,21.38
2018-12-13T08:20:35.443Z,21.53
2018-12-13T08:21:35.442Z,21.45
2018-12-13T08:22:35.425Z,21.44
2018-12-13T08:23:35.411Z,21.38
2018-12-13T08:24:35.567Z,21.28
2018-12-13T08:25:35.391Z,21.28
2018-12-13T08:26:35.378Z,21.26
2018-12-13T08:27:35.380Z,21.29
2018-12-13T08:28:35.352Z,21.35
2018-12-13T08:29:35.344Z,21.29
2018-12-13T08:30:35.543Z,21.30
2018-12-13T08:31:35.323Z,21.28
2018-12-13T08:32:35.309Z,21.23
2018-12-13T08:33:35.509Z,21.14
2018-12-13T08:34:35.295Z,21.23
2018-12-13T08:35:35.283Z,21.14
2018-12-13T08:36:35.522Z,21.15
2018-12-13T08:37:35.249Z,21.05
2018-12-13T08:38:35.243Z,21.05
2018-12-13T08:39:35.239Z,20.90
2018-12-13T08:40:35.222Z,20.93
2018-12-13T08:41:35.209Z,20.95
2018-12-13T08:42:35.310Z,20.92
2018-12-13T08:43:35.188Z,20.89
2018-12-13T08:44:35.182Z,20.93
2018-12-13T08:45:35.172Z,21.00
2018-12-13T08:46:36.637Z,20.96
2018-12-13T08:47:35.143Z,20.93
2018-12-13T08:48:35.333Z,21.04
2018-12-13T08:49:35.124Z,20.95
2018-12-13T08:50:35.108Z,20.88
2018-12-13T08:51:35.103Z,20.95
2018-12-13T08:52:35.099Z,21.00
2018-12-13T08:53:35.076Z,21.01
2018-12-13T08:54:35.378Z,21.00
2018-12-13T08:55:35.057Z,21.08
2018-12-13T08:56:35.047Z,21.14
2018-12-13T08:57:35.037Z,21.17
2018-12-13T08:58:35.022Z,21.13
2018-12-13T08:59:35.014Z,21.20
2018-12-13T09:00:35.103Z,21.25
2018-12-13T09:01:34.996Z,21.32
2018-12-13T09:02:34.987Z,21.41
2018-12-13T09:03:34.974Z,21.41
2018-12-13T09:04:34.958Z,21.51
2018-12-13T09:05:34.948Z,21.53
2018-12-13T09:06:35.049Z,21.62
2018-12-13T09:07:34.925Z,21.58
2018-12-13T09:08:34.915Z,21.69
2018-12-13T09:09:34.910Z,21.75
2018-12-13T09:10:34.893Z,21.69
2018-12-13T09:11:34.878Z,21.59
2018-12-13T09:12:35.178Z,21.70
2018-12-13T09:13:34.858Z,21.65
2018-12-13T09:14:34.851Z,21.70
2018-12-13T09:15:34.879Z,21.78
2018-12-13T09:16:34.825Z,21.75
2018-12-13T09:17:34.826Z,21.72
2018-12-13T09:18:34.984Z,21.83
2018-12-13T09:19:34.795Z,21.94
2018-12-13T09:20:34.782Z,21.92
2018-12-13T09:21:34.773Z,21.91
2018-12-13T09:22:34.762Z,22.01
2018-12-13T09:23:34.753Z,22.01
2018-12-13T09:24:34.860Z,21.96
2018-12-13T09:25:34.728Z,22.07
2018-12-13T09:26:34.719Z,21.94
2018-12-13T09:27:34.710Z,21.91
2018-12-13T09:28:34.692Z,21.92
2018-12-13T09:29:34.684Z,21.96
2018-12-13T09:30:34.859Z,22.07
2018-12-13T09:31:34.661Z,21.91
2018-12-13T09:32:34.648Z,22.08
2018-12-13T09:33:34.641Z,22.06
2018-12-13T09:34:34.633Z,22.26
2018-12-13T09:35:34.617Z,22.36
2018-12-13T09:36:34.723Z,22.43
2018-12-13T09:37:34.593Z,22.55
2018-12-13T09:38:39.802Z,22.67
2018-12-13T09:39:35.575Z,22.51
2018-12-13T09:40:34.565Z,22.40
2018-12-13T09:41:34.555Z,22.40
2018-12-13T09:42:34.755Z,22.36
2018-12-13T09:43:34.538Z,22.21
2018-12-13T09:44:34.521Z,22.06
2018-12-13T09:45:34.509Z,21.97
2018-12-13T09:46:34.498Z,21.84
2018-12-13T09:47:34.491Z,21.83
2018-12-13T09:48:34.573Z,21.74
2018-12-13T09:49:34.466Z,21.81
2018-12-13T09:50:34.455Z,22.08
2018-12-13T09:51:34.443Z,22.30
2018-12-13T09:52:34.434Z,22.40
2018-12-13T09:53:34.422Z,22.55
2018-12-13T09:54:34.637Z,22.67
2018-12-13T09:55:34.409Z,22.76
2018-12-13T09:56:34.394Z,22.99
2018-12-13T09:57:34.377Z,23.25
2018-12-13T09:58:34.367Z,23.29
2018-12-13T09:59:34.358Z,23.39
2018-12-13T10:00:34.455Z,23.45
2018-12-13T10:01:34.338Z,23.51
2018-12-13T10:02:34.323Z,23.63
2018-12-13T10:03:34.315Z,23.69
2018-12-13T10:04:34.301Z,23.88
2018-12-13T10:05:34.290Z,23.94
2018-12-13T10:06:34.383Z,23.99
2018-12-13T10:07:34.267Z,24.13
2018-12-13T10:08:34.257Z,24.19
2018-12-13T10:09:34.249Z,24.16
2018-12-13T10:10:34.238Z,23.95
2018-12-13T10:11:34.224Z,24.18
2018-12-13T10:12:34.323Z,24.26
2018-12-13T10:13:34.197Z,24.28
2018-12-13T10:14:34.187Z,24.40
2018-12-13T10:15:34.181Z,24.47
2018-12-13T10:16:34.183Z,24.55
2018-12-13T10:17:34.157Z,24.74
2018-12-13T10:18:34.374Z,24.84
2018-12-13T10:19:34.138Z,24.84
2018-12-13T10:20:34.137Z,25.14
2018-12-13T10:21:34.117Z,25.04
2018-12-13T10:22:34.104Z,25.12
2018-12-13T10:23:34.106Z,25.16
2018-12-13T10:24:34.283Z,25.25
2018-12-13T10:25:34.073Z,25.26
2018-12-13T10:26:34.062Z,25.29
2018-12-13T10:27:34.049Z,25.31
2018-12-13T10:28:34.038Z,25.33
2018-12-13T10:29:34.031Z,25.31
2018-12-13T10:30:34.145Z,25.25
2018-12-13T10:31:33.998Z,25.29
2018-12-13T10:32:33.991Z,25.24
2018-12-13T10:33:33.977Z,25.30
2018-12-13T10:34:33.970Z,25.37
2018-12-13T10:35:33.959Z,25.41
2018-12-13T10:36:34.230Z,25.31
2018-12-13T10:37:33.943Z,25.12
2018-12-13T10:38:33.929Z,25.36
2018-12-13T10:39:33.916Z,25.56
2018-12-13T10:40:34.830Z,25.74
2018-12-13T10:41:33.889Z,25.91
2018-12-13T10:42:33.988Z,25.62
2018-12-13T10:43:33.871Z,25.61
2018-12-13T10:44:34.837Z,25.77
2018-12-13T10:45:33.849Z,25.95
2018-12-13T10:46:33.838Z,25.99
2018-12-13T10:47:33.828Z,26.07
2018-12-13T10:48:34.382Z,26.29
2018-12-13T10:49:33.809Z,26.51
2018-12-13T10:50:33.793Z,26.49
2018-12-13T10:51:33.791Z,26.41
2018-12-13T10:52:33.776Z,26.53
2018-12-13T10:53:33.804Z,26.74
2018-12-13T10:54:33.867Z,26.93
2018-12-13T10:55:33.742Z,27.13
2018-12-13T10:56:33.731Z,27.44
2018-12-13T10:57:33.719Z,27.47
2018-12-13T10:58:33.706Z,27.47
2018-12-13T10:59:33.723Z,27.68
2018-12-13T11:00:33.792Z,27.88
2018-12-13T11:01:33.676Z,28.00
2018-12-13T11:02:33.668Z,27.72
2018-12-13T11:03:33.652Z,27.57
2018-12-13T11:04:33.646Z,27.22
2018-12-13T11:05:33.632Z,27.01
2018-12-13T11:06:33.838Z,27.28
2018-12-13T11:07:33.610Z,27.64
2018-12-13T11:08:33.603Z,27.95
2018-12-13T11:09:33.594Z,28.20
2018-12-13T11:10:33.577Z,28.50
2018-12-13T11:11:33.567Z,28.78
2018-12-13T11:12:33.664Z,29.15
2018-12-13T11:13:33.544Z,29.31
2018-12-13T11:14:33.537Z,29.50
2018-12-13T11:15:33.529Z,29.71
2018-12-13T11:16:33.515Z,29.86
2018-12-13T11:17:33.503Z,30.01
2018-12-13T11:18:33.622Z,29.95
2018-12-13T11:19:33.479Z,29.84
2018-12-13T11:20:33.464Z,29.71
2018-12-13T11:21:33.454Z,29.74
2018-12-13T11:22:33.446Z,29.83
2018-12-13T11:23:33.436Z,29.61
2018-12-13T11:24:33.611Z,29.84
2018-12-13T11:25:33.410Z,30.20
2018-12-13T11:26:33.406Z,30.63
2018-12-13T11:27:33.391Z,30.99
2018-12-13T11:28:33.388Z,31.32
2018-12-13T11:29:33.376Z,31.72
2018-12-13T11:30:33.481Z,31.51
2018-12-13T11:31:33.349Z,30.98
2018-12-13T11:32:33.334Z,30.49
2018-12-13T11:33:33.326Z,29.90
2018-12-13T11:34:33.315Z,29.28
2018-12-13T11:35:33.312Z,28.89
2018-12-13T11:36:33.391Z,28.64
2018-12-13T11:37:33.282Z,28.65
2018-12-13T11:38:33.273Z,29.84
2018-12-13T11:39:33.276Z,30.76
2018-12-13T11:40:33.248Z,31.45
2018-12-13T11:41:33.242Z,32.00
2018-12-13T11:42:33.402Z,31.95
2018-12-13T11:43:33.227Z,31.77
2018-12-13T11:44:33.210Z,30.69
2018-12-13T11:45:33.199Z,29.80
2018-12-13T11:46:33.189Z,29.21
2018-12-13T11:47:33.178Z,28.62
2018-12-13T11:48:33.281Z,28.19
2018-12-13T11:49:33.155Z,27.61
2018-12-13T11:50:33.144Z,27.28
2018-12-13T11:51:33.137Z,26.73
2018-12-13T11:52:33.127Z,26.31
2018-12-13T11:53:33.124Z,25.89
2018-12-13T11:54:33.207Z,25.54
2018-12-13T11:55:33.089Z,25.36
2018-12-13T11:56:33.085Z,25.11
2018-12-13T11:57:33.070Z,24.96
2018-12-13T11:58:33.057Z,25.01
2018-12-13T11:59:33.054Z,24.85
2018-12-13T12:00:33.249Z,24.78
2018-12-13T12:01:33.033Z,24.62
2018-12-13T12:02:33.017Z,24.53
2018-12-13T12:03:33.002Z,24.43
2018-12-13T12:04:32.992Z,24.34
2018-12-13T12:05:32.986Z,24.28
2018-12-13T12:06:33.102Z,24.18
2018-12-13T12:07:32.962Z,23.99
2018-12-13T12:08:32.949Z,23.88
2018-12-13T12:09:32.982Z,23.73
2018-12-13T12:10:32.927Z,23.52
2018-12-13T12:11:32.915Z,23.56
2018-12-13T12:12:32.997Z,23.47
2018-12-13T12:13:32.895Z,23.39
2018-12-13T12:14:32.879Z,23.39
2018-12-13T12:15:32.869Z,23.25
2018-12-13T12:16:32.865Z,23.20
2018-12-13T12:17:32.849Z,23.13
2018-12-13T12:18:33.042Z,23.23
2018-12-13T12:19:32.826Z,23.28
2018-12-13T12:20:32.818Z,23.26
2018-12-13T12:21:32.806Z,23.11
2018-12-13T12:22:32.795Z,23.26
2018-12-13T12:23:32.783Z,23.42
2018-12-13T12:24:32.875Z,23.44
2018-12-13T12:25:32.763Z,23.39
2018-12-13T12:26:32.755Z,23.26
2018-12-13T12:27:32.786Z,23.18
2018-12-13T12:28:32.737Z,22.99
2018-12-13T12:29:32.717Z,22.83
2018-12-13T12:30:32.905Z,22.73
2018-12-13T12:31:32.698Z,22.63
2018-12-13T12:32:32.686Z,22.63
2018-12-13T12:33:32.673Z,22.59
2018-12-13T12:34:32.663Z,22.51
2018-12-13T12:35:32.656Z,22.46
2018-12-13T12:36:32.745Z,22.37
2018-12-13T12:37:32.629Z,22.40
2018-12-13T12:38:32.626Z,22.40
2018-12-13T12:39:32.614Z,22.38
2018-12-13T12:40:32.600Z,22.34
2018-12-13T12:41:32.588Z,22.52
2018-12-13T12:42:32.749Z,22.56
2018-12-13T12:43:32.567Z,22.63
2018-12-13T12:44:32.562Z,22.80
2018-12-13T12:45:32.547Z,22.77
2018-12-13T12:46:32.535Z,23.01
2018-12-13T12:47:32.521Z,23.02
2018-12-13T12:48:32.793Z,23.06
2018-12-13T12:49:32.500Z,22.88
2018-12-13T12:50:32.577Z,22.83
2018-12-13T12:51:32.481Z,22.70
2018-12-13T12:52:32.467Z,22.68